sensor_id;sensor_type;location;lat;lon;timestamp;P1;durP1;ratioP1;P2;durP2;ratioP2
13250;SDS011;6692;50.710;7.180;2023-07-20T00:01:29;1999.90;;;999.90;;
13250;SDS011;6692;50.710;7.180;2023-07-20T00:03:31;1999.90;;;999.90;;
13250;SDS011;6692;50.710;7.180;2023-07-20T00:05:31;1999.90;;;999.90;;
13250;SDS011;6692;50.710;7.180;2023-07-20T00:07:32;1999.90;;;999.90;;
13250;SDS011;6692;50.710;7.180;2023-07-20T00:09:33;1999.90;;;999.90;;
13250;SDS011;6692;50.710;7.180;2023-07-20T00:11:35;1999.90;;;999.90;;
13250;SDS011;6692;50.710;7.180;2023-07-20T00:13:34;1999.90;;;999.90;;
13250;SDS011;6692;50.710;7.180;2023-07-20T00:15:35;1999.90;;;999.90;;
13250;SDS011;6692;50.710;7.180;2023-07-20T00:17:36;1999.90;;;999.90;;
13250;SDS011;6692;50.710;7.180;2023-07-20T00:19:39;1999.90;;;999.90;;
13250;SDS011;6692;50.710;7.180;2023-07-20T00:21:39;1999.90;;;999.90;;
13250;SDS011;6692;50.710;7.180;2023-07-20T00:23:41;1999.90;;;999.90;;
13250;SDS011;6692;50.710;7.180;2023-07-20T00:25:42;1999.90;;;999.90;;
13250;SDS011;6692;50.710;7.180;2023-07-20T00:27:42;1999.90;;;999.90;;
13250;SDS011;6692;50.710;7.180;2023-07-20T00:29:43;1999.90;;;999.90;;
13250;SDS011;6692;50.710;7.180;2023-07-20T00:31:45;1999.90;;;999.90;;
13250;SDS011;6692;50.710;7.180;2023-07-20T00:33:45;1999.90;;;999.90;;
13250;SDS011;6692;50.710;7.180;2023-07-20T00:35:47;1999.90;;;999.90;;
13250;SDS011;6692;50.710;7.180;2023-07-20T00:37:47;1999.90;;;999.90;;
13250;SDS011;6692;50.710;7.180;2023-07-20T00:39:48;1999.90;;;999.90;;
13250;SDS011;6692;50.710;7.180;2023-07-20T00:41:49;1999.90;;;999.90;;
13250;SDS011;6692;50.710;7.180;2023-07-20T00:43:50;1999.90;;;999.90;;
13250;SDS011;6692;50.710;7.180;2023-07-20T00:45:50;1999.90;;;999.90;;
13250;SDS011;6692;50.710;7.180;2023-07-20T00:47:51;1999.90;;;999.90;;
13250;SDS011;6692;50.710;7.180;2023-07-20T00:49:52;1999.90;;;999.90;;
13250;SDS011;6692;50.710;7.180;2023-07-20T00:51:52;1999.90;;;999.90;;
13250;SDS011;6692;50.710;7.180;2023-07-20T00:53:53;1999.90;;;999.90;;
13250;SDS011;6692;50.710;7.180;2023-07-20T00:55:54;1999.90;;;999.90;;
13250;SDS011;6692;50.710;7.180;2023-07-20T00:57:55;1999.90;;;999.90;;
13250;SDS011;6692;50.710;7.180;2023-07-20T00:59:55;1999.90;;;999.90;;
13250;SDS011;6692;50.710;7.180;2023-07-20T01:01:56;1999.90;;;999.90;;
13250;SDS011;6692;50.710;7.180;2023-07-20T01:03:57;1999.90;;;999.90;;
13250;SDS011;6692;50.710;7.180;2023-07-20T01:08:27;1999.90;;;999.90;;
13250;SDS011;6692;50.710;7.180;2023-07-20T01:10:29;1999.90;;;999.90;;
13250;SDS011;6692;50.710;7.180;2023-07-20T01:12:41;1999.90;;;999.90;;
13250;SDS011;6692;50.710;7.180;2023-07-20T01:14:42;1999.90;;;999.90;;
13250;SDS011;6692;50.710;7.180;2023-07-20T01:16:42;1999.90;;;999.90;;
13250;SDS011;6692;50.710;7.180;2023-07-20T01:18:43;1999.90;;;999.90;;
13250;SDS011;6692;50.710;7.180;2023-07-20T01:20:44;1999.90;;;999.90;;
13250;SDS011;6692;50.710;7.180;2023-07-20T01:22:54;1999.90;;;999.90;;
13250;SDS011;6692;50.710;7.180;2023-07-20T01:25:19;1999.90;;;999.90;;
13250;SDS011;6692;50.710;7.180;2023-07-20T01:30:33;1999.90;;;999.90;;
13250;SDS011;6692;50.710;7.180;2023-07-20T01:32:14;1999.90;;;999.90;;
13250;SDS011;6692;50.710;7.180;2023-07-20T01:34:15;1999.90;;;999.90;;
13250;SDS011;6692;50.710;7.180;2023-07-20T01:36:17;1999.90;;;999.90;;
13250;SDS011;6692;50.710;7.180;2023-07-20T01:38:17;1999.90;;;999.90;;
13250;SDS011;6692;50.710;7.180;2023-07-20T01:40:19;1999.90;;;999.90;;
13250;SDS011;6692;50.710;7.180;2023-07-20T01:42:19;1999.90;;;999.90;;
13250;SDS011;6692;50.710;7.180;2023-07-20T01:44:19;1999.90;;;999.90;;
13250;SDS011;6692;50.710;7.180;2023-07-20T01:46:20;1999.90;;;999.90;;
13250;SDS011;6692;50.710;7.180;2023-07-20T01:48:21;1999.90;;;999.90;;
13250;SDS011;6692;50.710;7.180;2023-07-20T01:50:22;1999.90;;;999.90;;
13250;SDS011;6692;50.710;7.180;2023-07-20T01:52:22;1999.90;;;999.90;;
13250;SDS011;6692;50.710;7.180;2023-07-20T01:54:23;1999.90;;;999.90;;
13250;SDS011;6692;50.710;7.180;2023-07-20T01:56:24;1999.90;;;999.90;;
13250;SDS011;6692;50.710;7.180;2023-07-20T01:58:25;1999.90;;;999.90;;
13250;SDS011;6692;50.710;7.180;2023-07-20T02:00:26;1999.90;;;999.90;;
13250;SDS011;6692;50.710;7.180;2023-07-20T02:02:27;1999.90;;;999.90;;
13250;SDS011;6692;50.710;7.180;2023-07-20T02:04:28;1999.90;;;999.90;;
13250;SDS011;6692;50.710;7.180;2023-07-20T02:06:30;1999.90;;;999.90;;
13250;SDS011;6692;50.710;7.180;2023-07-20T02:08:29;1999.90;;;999.90;;
13250;SDS011;6692;50.710;7.180;2023-07-20T02:10:30;1999.90;;;999.90;;
13250;SDS011;6692;50.710;7.180;2023-07-20T02:12:31;1999.90;;;999.90;;
13250;SDS011;6692;50.710;7.180;2023-07-20T02:14:31;1999.90;;;999.90;;
13250;SDS011;6692;50.710;7.180;2023-07-20T02:16:32;1999.90;;;999.90;;
13250;SDS011;6692;50.710;7.180;2023-07-20T02:18:34;1999.90;;;999.90;;
13250;SDS011;6692;50.710;7.180;2023-07-20T02:20:35;1999.90;;;999.90;;
13250;SDS011;6692;50.710;7.180;2023-07-20T02:22:36;1999.90;;;999.90;;
13250;SDS011;6692;50.710;7.180;2023-07-20T02:24:37;1999.90;;;999.90;;
13250;SDS011;6692;50.710;7.180;2023-07-20T02:26:37;1999.90;;;999.90;;
13250;SDS011;6692;50.710;7.180;2023-07-20T02:28:39;1999.90;;;999.90;;
13250;SDS011;6692;50.710;7.180;2023-07-20T02:30:39;1999.90;;;999.90;;
13250;SDS011;6692;50.710;7.180;2023-07-20T02:32:40;1999.90;;;999.90;;
13250;SDS011;6692;50.710;7.180;2023-07-20T02:34:41;1999.90;;;999.90;;
13250;SDS011;6692;50.710;7.180;2023-07-20T02:36:42;1999.90;;;999.90;;
13250;SDS011;6692;50.710;7.180;2023-07-20T02:38:42;1999.90;;;999.90;;
13250;SDS011;6692;50.710;7.180;2023-07-20T02:40:43;1999.90;;;999.90;;
13250;SDS011;6692;50.710;7.180;2023-07-20T02:42:44;1999.90;;;999.90;;
13250;SDS011;6692;50.710;7.180;2023-07-20T02:44:44;1999.90;;;999.90;;
13250;SDS011;6692;50.710;7.180;2023-07-20T02:46:46;1999.90;;;999.90;;
13250;SDS011;6692;50.710;7.180;2023-07-20T02:48:47;1999.90;;;999.90;;
13250;SDS011;6692;50.710;7.180;2023-07-20T02:50:47;1999.90;;;999.90;;
13250;SDS011;6692;50.710;7.180;2023-07-20T02:52:48;1999.90;;;999.90;;
13250;SDS011;6692;50.710;7.180;2023-07-20T02:54:49;1999.90;;;999.90;;
13250;SDS011;6692;50.710;7.180;2023-07-20T02:56:49;1999.90;;;999.90;;
13250;SDS011;6692;50.710;7.180;2023-07-20T02:58:50;1999.90;;;999.90;;
13250;SDS011;6692;50.710;7.180;2023-07-20T03:00:51;1999.90;;;999.90;;
13250;SDS011;6692;50.710;7.180;2023-07-20T03:02:52;1999.90;;;999.90;;
13250;SDS011;6692;50.710;7.180;2023-07-20T03:04:52;1999.90;;;999.90;;
13250;SDS011;6692;50.710;7.180;2023-07-20T03:06:53;1999.90;;;999.90;;
13250;SDS011;6692;50.710;7.180;2023-07-20T03:08:54;1999.90;;;999.90;;
13250;SDS011;6692;50.710;7.180;2023-07-20T03:10:54;1999.90;;;999.90;;
13250;SDS011;6692;50.710;7.180;2023-07-20T03:12:55;1999.90;;;999.90;;
13250;SDS011;6692;50.710;7.180;2023-07-20T03:14:56;1999.90;;;999.90;;
13250;SDS011;6692;50.710;7.180;2023-07-20T03:16:56;1999.90;;;999.90;;
13250;SDS011;6692;50.710;7.180;2023-07-20T03:18:58;1999.90;;;999.90;;
13250;SDS011;6692;50.710;7.180;2023-07-20T03:20:59;1999.90;;;999.90;;
13250;SDS011;6692;50.710;7.180;2023-07-20T03:22:59;1999.90;;;999.90;;
13250;SDS011;6692;50.710;7.180;2023-07-20T03:25:00;1999.90;;;999.90;;
13250;SDS011;6692;50.710;7.180;2023-07-20T03:27:01;1999.90;;;999.90;;
13250;SDS011;6692;50.710;7.180;2023-07-20T03:29:03;1999.90;;;999.90;;
13250;SDS011;6692;50.710;7.180;2023-07-20T03:31:05;1999.90;;;999.90;;
13250;SDS011;6692;50.710;7.180;2023-07-20T03:33:05;1999.90;;;999.90;;
13250;SDS011;6692;50.710;7.180;2023-07-20T03:35:06;1999.90;;;999.90;;
13250;SDS011;6692;50.710;7.180;2023-07-20T03:37:07;1999.90;;;999.90;;
13250;SDS011;6692;50.710;7.180;2023-07-20T03:39:08;1999.90;;;999.90;;
13250;SDS011;6692;50.710;7.180;2023-07-20T03:41:09;1999.90;;;999.90;;
13250;SDS011;6692;50.710;7.180;2023-07-20T03:43:10;1999.90;;;999.90;;
13250;SDS011;6692;50.710;7.180;2023-07-20T03:45:11;1999.90;;;999.90;;
13250;SDS011;6692;50.710;7.180;2023-07-20T03:47:12;1999.90;;;999.90;;
13250;SDS011;6692;50.710;7.180;2023-07-20T03:49:12;1999.90;;;999.90;;
13250;SDS011;6692;50.710;7.180;2023-07-20T03:51:13;1999.90;;;999.90;;
13250;SDS011;6692;50.710;7.180;2023-07-20T03:53:14;1999.90;;;999.90;;
13250;SDS011;6692;50.710;7.180;2023-07-20T03:55:15;1999.90;;;999.90;;
13250;SDS011;6692;50.710;7.180;2023-07-20T03:57:16;1999.90;;;999.90;;
13250;SDS011;6692;50.710;7.180;2023-07-20T03:59:17;1999.90;;;999.90;;
13250;SDS011;6692;50.710;7.180;2023-07-20T04:01:17;1999.90;;;999.90;;
13250;SDS011;6692;50.710;7.180;2023-07-20T04:03:18;1999.90;;;999.90;;
13250;SDS011;6692;50.710;7.180;2023-07-20T04:05:19;1999.90;;;999.90;;
13250;SDS011;6692;50.710;7.180;2023-07-20T04:07:20;1999.90;;;999.90;;
13250;SDS011;6692;50.710;7.180;2023-07-20T04:09:21;1999.90;;;999.90;;
13250;SDS011;6692;50.710;7.180;2023-07-20T04:11:21;1999.90;;;999.90;;
13250;SDS011;6692;50.710;7.180;2023-07-20T04:13:22;1999.90;;;999.90;;
13250;SDS011;6692;50.710;7.180;2023-07-20T04:15:23;1999.90;;;999.90;;
13250;SDS011;6692;50.710;7.180;2023-07-20T04:17:23;1999.90;;;999.90;;
13250;SDS011;6692;50.710;7.180;2023-07-20T04:19:24;1999.90;;;999.90;;
13250;SDS011;6692;50.710;7.180;2023-07-20T04:21:25;1999.90;;;999.90;;
13250;SDS011;6692;50.710;7.180;2023-07-20T04:23:25;1999.90;;;999.90;;
13250;SDS011;6692;50.710;7.180;2023-07-20T04:25:27;1999.90;;;999.90;;
13250;SDS011;6692;50.710;7.180;2023-07-20T04:27:28;1999.90;;;999.90;;
13250;SDS011;6692;50.710;7.180;2023-07-20T04:29:29;1999.90;;;999.90;;
13250;SDS011;6692;50.710;7.180;2023-07-20T04:31:30;1999.90;;;999.90;;
13250;SDS011;6692;50.710;7.180;2023-07-20T04:33:31;1999.90;;;999.90;;
13250;SDS011;6692;50.710;7.180;2023-07-20T04:37:46;1999.90;;;999.90;;
13250;SDS011;6692;50.710;7.180;2023-07-20T04:39:46;1999.90;;;999.90;;
13250;SDS011;6692;50.710;7.180;2023-07-20T04:41:47;1999.90;;;999.90;;
13250;SDS011;6692;50.710;7.180;2023-07-20T04:43:48;1999.90;;;999.90;;
13250;SDS011;6692;50.710;7.180;2023-07-20T04:45:48;1999.90;;;999.90;;
13250;SDS011;6692;50.710;7.180;2023-07-20T04:47:49;1999.90;;;999.90;;
13250;SDS011;6692;50.710;7.180;2023-07-20T04:49:50;1999.90;;;999.90;;
13250;SDS011;6692;50.710;7.180;2023-07-20T04:51:52;1999.90;;;999.90;;
13250;SDS011;6692;50.710;7.180;2023-07-20T04:53:54;1999.90;;;999.90;;
13250;SDS011;6692;50.710;7.180;2023-07-20T04:55:54;1999.90;;;999.90;;
13250;SDS011;6692;50.710;7.180;2023-07-20T04:57:55;1999.90;;;999.90;;
13250;SDS011;6692;50.710;7.180;2023-07-20T04:59:56;1999.90;;;999.90;;
13250;SDS011;6692;50.710;7.180;2023-07-20T05:01:57;1999.90;;;999.90;;
13250;SDS011;6692;50.710;7.180;2023-07-20T05:03:57;1999.90;;;999.90;;
13250;SDS011;6692;50.710;7.180;2023-07-20T05:05:58;1999.90;;;999.90;;
13250;SDS011;6692;50.710;7.180;2023-07-20T05:07:59;1999.90;;;999.90;;
13250;SDS011;6692;50.710;7.180;2023-07-20T05:09:59;1999.90;;;999.90;;
13250;SDS011;6692;50.710;7.180;2023-07-20T05:12:01;1999.90;;;999.90;;
13250;SDS011;6692;50.710;7.180;2023-07-20T05:14:02;1999.90;;;999.90;;
13250;SDS011;6692;50.710;7.180;2023-07-20T05:16:03;1999.90;;;999.90;;
13250;SDS011;6692;50.710;7.180;2023-07-20T05:18:04;1999.90;;;999.90;;
13250;SDS011;6692;50.710;7.180;2023-07-20T05:20:05;1999.90;;;999.90;;
13250;SDS011;6692;50.710;7.180;2023-07-20T05:22:07;1999.90;;;999.90;;
13250;SDS011;6692;50.710;7.180;2023-07-20T05:24:07;1999.90;;;999.90;;
13250;SDS011;6692;50.710;7.180;2023-07-20T05:26:08;1999.90;;;999.90;;
13250;SDS011;6692;50.710;7.180;2023-07-20T05:28:09;1999.90;;;999.90;;
13250;SDS011;6692;50.710;7.180;2023-07-20T05:30:10;1999.90;;;999.90;;
13250;SDS011;6692;50.710;7.180;2023-07-20T05:32:13;1999.90;;;999.90;;
13250;SDS011;6692;50.710;7.180;2023-07-20T05:34:13;1999.90;;;999.90;;
13250;SDS011;6692;50.710;7.180;2023-07-20T05:36:14;1999.90;;;999.90;;
13250;SDS011;6692;50.710;7.180;2023-07-20T05:38:15;1999.90;;;999.90;;
13250;SDS011;6692;50.710;7.180;2023-07-20T05:40:15;1999.90;;;999.90;;
13250;SDS011;6692;50.710;7.180;2023-07-20T05:42:16;1999.90;;;999.90;;
13250;SDS011;6692;50.710;7.180;2023-07-20T05:44:17;1999.90;;;999.90;;
13250;SDS011;6692;50.710;7.180;2023-07-20T05:46:18;1999.90;;;999.90;;
13250;SDS011;6692;50.710;7.180;2023-07-20T05:48:18;1999.90;;;999.90;;
13250;SDS011;6692;50.710;7.180;2023-07-20T05:50:19;1999.90;;;999.90;;
13250;SDS011;6692;50.710;7.180;2023-07-20T05:52:20;1999.90;;;999.90;;
13250;SDS011;6692;50.710;7.180;2023-07-20T05:54:20;1999.90;;;999.90;;
13250;SDS011;6692;50.710;7.180;2023-07-20T05:56:22;1999.90;;;999.90;;
13250;SDS011;6692;50.710;7.180;2023-07-20T05:58:23;1999.90;;;999.90;;
13250;SDS011;6692;50.710;7.180;2023-07-20T06:00:23;1999.90;;;999.90;;
13250;SDS011;6692;50.710;7.180;2023-07-20T06:02:24;1999.90;;;999.90;;
13250;SDS011;6692;50.710;7.180;2023-07-20T06:04:25;1999.90;;;999.90;;
13250;SDS011;6692;50.710;7.180;2023-07-20T06:06:27;1999.90;;;999.90;;
13250;SDS011;6692;50.710;7.180;2023-07-20T06:08:28;1999.90;;;999.90;;
13250;SDS011;6692;50.710;7.180;2023-07-20T06:10:28;1999.90;;;999.90;;
13250;SDS011;6692;50.710;7.180;2023-07-20T06:12:30;1999.90;;;999.90;;
13250;SDS011;6692;50.710;7.180;2023-07-20T06:14:30;1999.90;;;999.90;;
13250;SDS011;6692;50.710;7.180;2023-07-20T06:16:31;1999.90;;;999.90;;
13250;SDS011;6692;50.710;7.180;2023-07-20T06:18:32;1999.90;;;999.90;;
13250;SDS011;6692;50.710;7.180;2023-07-20T06:20:33;1999.90;;;999.90;;
13250;SDS011;6692;50.710;7.180;2023-07-20T06:22:33;1999.90;;;999.90;;
13250;SDS011;6692;50.710;7.180;2023-07-20T06:24:35;1999.90;;;999.90;;
13250;SDS011;6692;50.710;7.180;2023-07-20T06:26:35;1999.90;;;999.90;;
13250;SDS011;6692;50.710;7.180;2023-07-20T06:28:37;1999.90;;;999.90;;
13250;SDS011;6692;50.710;7.180;2023-07-20T06:30:38;1999.90;;;999.90;;
13250;SDS011;6692;50.710;7.180;2023-07-20T06:32:38;1999.90;;;999.90;;
13250;SDS011;6692;50.710;7.180;2023-07-20T06:34:39;1999.90;;;999.90;;
13250;SDS011;6692;50.710;7.180;2023-07-20T06:36:40;1999.90;;;999.90;;
13250;SDS011;6692;50.710;7.180;2023-07-20T06:38:42;1999.90;;;999.90;;
13250;SDS011;6692;50.710;7.180;2023-07-20T06:40:43;1999.90;;;999.90;;
13250;SDS011;6692;50.710;7.180;2023-07-20T06:42:43;1999.90;;;999.90;;
13250;SDS011;6692;50.710;7.180;2023-07-20T06:44:44;1999.90;;;999.90;;
13250;SDS011;6692;50.710;7.180;2023-07-20T06:46:45;1999.90;;;999.90;;
13250;SDS011;6692;50.710;7.180;2023-07-20T06:48:45;1999.90;;;999.90;;
13250;SDS011;6692;50.710;7.180;2023-07-20T06:50:46;1999.90;;;999.90;;
13250;SDS011;6692;50.710;7.180;2023-07-20T06:52:48;1999.90;;;999.90;;
13250;SDS011;6692;50.710;7.180;2023-07-20T06:54:48;1999.90;;;999.90;;
13250;SDS011;6692;50.710;7.180;2023-07-20T06:56:50;1999.90;;;999.90;;
13250;SDS011;6692;50.710;7.180;2023-07-20T06:58:51;1999.90;;;999.90;;
13250;SDS011;6692;50.710;7.180;2023-07-20T07:00:52;1999.90;;;999.90;;
13250;SDS011;6692;50.710;7.180;2023-07-20T07:02:53;1999.90;;;999.90;;
13250;SDS011;6692;50.710;7.180;2023-07-20T07:04:53;1999.90;;;999.90;;
13250;SDS011;6692;50.710;7.180;2023-07-20T07:06:54;1999.90;;;999.90;;
13250;SDS011;6692;50.710;7.180;2023-07-20T07:08:55;1999.90;;;999.90;;
13250;SDS011;6692;50.710;7.180;2023-07-20T07:10:55;1999.90;;;999.90;;
13250;SDS011;6692;50.710;7.180;2023-07-20T07:12:56;1999.90;;;999.90;;
13250;SDS011;6692;50.710;7.180;2023-07-20T07:14:57;1999.90;;;999.90;;
13250;SDS011;6692;50.710;7.180;2023-07-20T07:16:58;1999.90;;;999.90;;
13250;SDS011;6692;50.710;7.180;2023-07-20T07:18:58;1999.90;;;999.90;;
13250;SDS011;6692;50.710;7.180;2023-07-20T07:20:59;1999.90;;;999.90;;
13250;SDS011;6692;50.710;7.180;2023-07-20T07:23:00;1999.90;;;999.90;;
13250;SDS011;6692;50.710;7.180;2023-07-20T07:25:01;1999.90;;;999.90;;
13250;SDS011;6692;50.710;7.180;2023-07-20T07:27:02;1999.90;;;999.90;;
13250;SDS011;6692;50.710;7.180;2023-07-20T07:29:03;1999.90;;;999.90;;
13250;SDS011;6692;50.710;7.180;2023-07-20T07:31:04;1999.90;;;999.90;;
13250;SDS011;6692;50.710;7.180;2023-07-20T07:33:05;1999.90;;;999.90;;
13250;SDS011;6692;50.710;7.180;2023-07-20T07:35:06;1999.90;;;999.90;;
13250;SDS011;6692;50.710;7.180;2023-07-20T07:37:07;1999.90;;;999.90;;
13250;SDS011;6692;50.710;7.180;2023-07-20T07:39:08;1999.90;;;999.90;;
13250;SDS011;6692;50.710;7.180;2023-07-20T07:41:09;1999.90;;;999.90;;
13250;SDS011;6692;50.710;7.180;2023-07-20T07:43:10;1999.90;;;999.90;;
13250;SDS011;6692;50.710;7.180;2023-07-20T07:45:11;1999.90;;;999.90;;
13250;SDS011;6692;50.710;7.180;2023-07-20T07:47:12;1999.90;;;999.90;;
13250;SDS011;6692;50.710;7.180;2023-07-20T07:49:13;1999.90;;;999.90;;
13250;SDS011;6692;50.710;7.180;2023-07-20T07:51:14;1999.90;;;999.90;;
13250;SDS011;6692;50.710;7.180;2023-07-20T07:53:15;1999.90;;;999.90;;
13250;SDS011;6692;50.710;7.180;2023-07-20T07:55:16;1999.90;;;999.90;;
13250;SDS011;6692;50.710;7.180;2023-07-20T07:57:16;1999.90;;;999.90;;
13250;SDS011;6692;50.710;7.180;2023-07-20T07:59:17;1999.90;;;999.90;;
13250;SDS011;6692;50.710;7.180;2023-07-20T08:01:18;1999.90;;;999.90;;
13250;SDS011;6692;50.710;7.180;2023-07-20T08:03:19;1999.90;;;999.90;;
13250;SDS011;6692;50.710;7.180;2023-07-20T08:05:20;1999.90;;;999.90;;
13250;SDS011;6692;50.710;7.180;2023-07-20T08:07:22;1999.90;;;999.90;;
13250;SDS011;6692;50.710;7.180;2023-07-20T08:09:22;1999.90;;;999.90;;
13250;SDS011;6692;50.710;7.180;2023-07-20T08:11:24;1999.90;;;999.90;;
13250;SDS011;6692;50.710;7.180;2023-07-20T08:13:25;1999.90;;;999.90;;
13250;SDS011;6692;50.710;7.180;2023-07-20T08:15:26;1999.90;;;999.90;;
13250;SDS011;6692;50.710;7.180;2023-07-20T08:17:27;1999.90;;;999.90;;
13250;SDS011;6692;50.710;7.180;2023-07-20T08:19:27;1999.90;;;999.90;;
13250;SDS011;6692;50.710;7.180;2023-07-20T08:21:28;1999.90;;;999.90;;
13250;SDS011;6692;50.710;7.180;2023-07-20T08:23:29;1999.90;;;999.90;;
13250;SDS011;6692;50.710;7.180;2023-07-20T08:25:30;1999.90;;;999.90;;
13250;SDS011;6692;50.710;7.180;2023-07-20T08:27:30;1999.90;;;999.90;;
13250;SDS011;6692;50.710;7.180;2023-07-20T08:29:31;1999.90;;;999.90;;
13250;SDS011;6692;50.710;7.180;2023-07-20T08:31:32;1999.90;;;999.90;;
13250;SDS011;6692;50.710;7.180;2023-07-20T08:33:32;1999.90;;;999.90;;
13250;SDS011;6692;50.710;7.180;2023-07-20T08:35:33;1999.90;;;999.90;;
13250;SDS011;6692;50.710;7.180;2023-07-20T08:37:34;1999.90;;;999.90;;
13250;SDS011;6692;50.710;7.180;2023-07-20T08:39:34;1999.90;;;999.90;;
13250;SDS011;6692;50.710;7.180;2023-07-20T08:41:35;1999.90;;;999.90;;
13250;SDS011;6692;50.710;7.180;2023-07-20T08:43:36;1999.90;;;999.90;;
13250;SDS011;6692;50.710;7.180;2023-07-20T08:45:38;1999.90;;;999.90;;
13250;SDS011;6692;50.710;7.180;2023-07-20T08:47:38;1999.90;;;999.90;;
13250;SDS011;6692;50.710;7.180;2023-07-20T08:49:39;1999.90;;;999.90;;
13250;SDS011;6692;50.710;7.180;2023-07-20T08:51:39;1999.90;;;999.90;;
13250;SDS011;6692;50.710;7.180;2023-07-20T08:53:40;1999.90;;;999.90;;
13250;SDS011;6692;50.710;7.180;2023-07-20T08:55:42;1999.90;;;999.90;;
13250;SDS011;6692;50.710;7.180;2023-07-20T08:57:42;1999.90;;;999.90;;
13250;SDS011;6692;50.710;7.180;2023-07-20T08:59:42;1999.90;;;999.90;;
13250;SDS011;6692;50.710;7.180;2023-07-20T09:01:43;1999.90;;;999.90;;
13250;SDS011;6692;50.710;7.180;2023-07-20T09:03:44;1999.90;;;999.90;;
13250;SDS011;6692;50.710;7.180;2023-07-20T09:05:45;1999.90;;;999.90;;
13250;SDS011;6692;50.710;7.180;2023-07-20T09:07:45;1999.90;;;999.90;;
13250;SDS011;6692;50.710;7.180;2023-07-20T09:09:46;1999.90;;;999.90;;
13250;SDS011;6692;50.710;7.180;2023-07-20T09:11:47;1999.90;;;999.90;;
13250;SDS011;6692;50.710;7.180;2023-07-20T09:13:47;1999.90;;;999.90;;
13250;SDS011;6692;50.710;7.180;2023-07-20T09:15:53;1999.90;;;999.90;;
13250;SDS011;6692;50.710;7.180;2023-07-20T09:17:49;1999.90;;;999.90;;
13250;SDS011;6692;50.710;7.180;2023-07-20T09:19:49;1999.90;;;999.90;;
13250;SDS011;6692;50.710;7.180;2023-07-20T09:21:51;1999.90;;;999.90;;
13250;SDS011;6692;50.710;7.180;2023-07-20T09:23:52;1999.90;;;999.90;;
13250;SDS011;6692;50.710;7.180;2023-07-20T09:25:52;1999.90;;;999.90;;
13250;SDS011;6692;50.710;7.180;2023-07-20T09:27:53;1999.90;;;999.90;;
13250;SDS011;6692;50.710;7.180;2023-07-20T09:29:54;1999.90;;;999.90;;
13250;SDS011;6692;50.710;7.180;2023-07-20T09:31:59;1999.90;;;999.90;;
13250;SDS011;6692;50.710;7.180;2023-07-20T09:34:03;1999.90;;;999.90;;
13250;SDS011;6692;50.710;7.180;2023-07-20T09:36:04;1999.90;;;999.90;;
13250;SDS011;6692;50.710;7.180;2023-07-20T09:38:05;1999.90;;;999.90;;
13250;SDS011;6692;50.710;7.180;2023-07-20T09:40:06;1999.90;;;999.90;;
13250;SDS011;6692;50.710;7.180;2023-07-20T09:42:08;1999.90;;;999.90;;
13250;SDS011;6692;50.710;7.180;2023-07-20T09:44:10;1999.90;;;999.90;;
13250;SDS011;6692;50.710;7.180;2023-07-20T09:46:10;1999.90;;;999.90;;
13250;SDS011;6692;50.710;7.180;2023-07-20T09:48:11;1999.90;;;999.90;;
13250;SDS011;6692;50.710;7.180;2023-07-20T09:50:12;1999.90;;;999.90;;
13250;SDS011;6692;50.710;7.180;2023-07-20T09:52:13;1999.90;;;999.90;;
13250;SDS011;6692;50.710;7.180;2023-07-20T09:54:14;1999.90;;;999.90;;
13250;SDS011;6692;50.710;7.180;2023-07-20T09:56:16;1999.90;;;999.90;;
13250;SDS011;6692;50.710;7.180;2023-07-20T09:58:16;1999.90;;;999.90;;
13250;SDS011;6692;50.710;7.180;2023-07-20T10:00:17;1999.90;;;999.90;;
13250;SDS011;6692;50.710;7.180;2023-07-20T10:02:21;1999.90;;;999.90;;
13250;SDS011;6692;50.710;7.180;2023-07-20T10:04:21;1999.90;;;999.90;;
13250;SDS011;6692;50.710;7.180;2023-07-20T10:06:23;1999.90;;;999.90;;
13250;SDS011;6692;50.710;7.180;2023-07-20T10:08:24;1999.90;;;999.90;;
13250;SDS011;6692;50.710;7.180;2023-07-20T10:10:25;1999.90;;;999.90;;
13250;SDS011;6692;50.710;7.180;2023-07-20T10:12:25;1999.90;;;999.90;;
13250;SDS011;6692;50.710;7.180;2023-07-20T10:14:26;1999.90;;;999.90;;
13250;SDS011;6692;50.710;7.180;2023-07-20T10:16:29;1999.90;;;999.90;;
13250;SDS011;6692;50.710;7.180;2023-07-20T10:18:31;1999.90;;;999.90;;
13250;SDS011;6692;50.710;7.180;2023-07-20T10:20:32;1999.90;;;999.90;;
13250;SDS011;6692;50.710;7.180;2023-07-20T10:22:34;1999.90;;;999.90;;
13250;SDS011;6692;50.710;7.180;2023-07-20T10:24:33;1999.90;;;999.90;;
13250;SDS011;6692;50.710;7.180;2023-07-20T10:26:34;1999.90;;;999.90;;
13250;SDS011;6692;50.710;7.180;2023-07-20T10:28:36;1999.90;;;999.90;;
13250;SDS011;6692;50.710;7.180;2023-07-20T10:30:36;1999.90;;;999.90;;
13250;SDS011;6692;50.710;7.180;2023-07-20T10:32:37;1999.90;;;999.90;;
13250;SDS011;6692;50.710;7.180;2023-07-20T10:34:38;1999.90;;;999.90;;
13250;SDS011;6692;50.710;7.180;2023-07-20T10:36:44;1999.90;;;999.90;;
13250;SDS011;6692;50.710;7.180;2023-07-20T10:38:53;1999.90;;;999.90;;
13250;SDS011;6692;50.710;7.180;2023-07-20T10:40:54;1999.90;;;999.90;;
13250;SDS011;6692;50.710;7.180;2023-07-20T10:42:56;1999.90;;;999.90;;
13250;SDS011;6692;50.710;7.180;2023-07-20T10:44:56;770.53;;;733.03;;
13250;SDS011;6692;50.710;7.180;2023-07-20T10:47:00;731.97;;;697.73;;
13250;SDS011;6692;50.710;7.180;2023-07-20T10:49:02;544.90;;;522.20;;
13250;SDS011;6692;50.710;7.180;2023-07-20T10:51:08;624.20;;;596.77;;
13250;SDS011;6692;50.710;7.180;2023-07-20T10:53:09;797.33;;;756.57;;
13250;SDS011;6692;50.710;7.180;2023-07-20T10:55:10;1197.40;;;836.93;;
13250;SDS011;6692;50.710;7.180;2023-07-20T10:59:38;440.40;;;423.60;;
13250;SDS011;6692;50.710;7.180;2023-07-20T11:01:39;440.43;;;423.57;;
13250;SDS011;6692;50.710;7.180;2023-07-20T11:03:41;480.83;;;462.10;;
13250;SDS011;6692;50.710;7.180;2023-07-20T11:05:42;280.63;;;270.63;;
13250;SDS011;6692;50.710;7.180;2023-07-20T11:07:43;403.70;;;388.73;;
13250;SDS011;6692;50.710;7.180;2023-07-20T11:09:45;516.33;;;495.63;;
13250;SDS011;6692;50.710;7.180;2023-07-20T11:11:47;713.30;;;679.03;;
13250;SDS011;6692;50.710;7.180;2023-07-20T11:16:03;725.90;;;690.40;;
13250;SDS011;6692;50.710;7.180;2023-07-20T11:18:11;659.37;;;629.60;;
13250;SDS011;6692;50.710;7.180;2023-07-20T11:20:11;498.30;;;478.40;;
13250;SDS011;6692;50.710;7.180;2023-07-20T11:22:11;464.40;;;446.50;;
13250;SDS011;6692;50.710;7.180;2023-07-20T11:24:12;305.23;;;294.60;;
13250;SDS011;6692;50.710;7.180;2023-07-20T11:26:13;433.60;;;417.27;;
13250;SDS011;6692;50.710;7.180;2023-07-20T11:28:13;470.73;;;452.37;;
13250;SDS011;6692;50.710;7.180;2023-07-20T11:30:15;543.97;;;521.60;;
13250;SDS011;6692;50.710;7.180;2023-07-20T11:32:20;457.67;;;440.27;;
13250;SDS011;6692;50.710;7.180;2023-07-20T11:34:20;587.60;;;562.37;;
13250;SDS011;6692;50.710;7.180;2023-07-20T11:36:21;555.93;;;532.90;;
13250;SDS011;6692;50.710;7.180;2023-07-20T11:38:23;533.27;;;511.40;;
13250;SDS011;6692;50.710;7.180;2023-07-20T11:40:23;330.80;;;319.07;;
13250;SDS011;6692;50.710;7.180;2023-07-20T11:42:24;492.67;;;472.87;;